createdAt,value
2018-04-23T00:01:39.787Z,38.99
2018-04-23T00:04:07.665Z,39.44
2018-04-23T00:06:33.587Z,38.17
2018-04-23T00:08:59.484Z,38.00
2018-04-23T00:11:25.336Z,37.84
2018-04-23T00:13:51.270Z,38.01
2018-04-23T00:16:20.539Z,37.95
2018-04-23T00:18:46.441Z,37.90
2018-04-23T00:21:14.050Z,37.97
2018-04-23T00:23:39.959Z,38.68
2018-04-23T00:26:09.711Z,40.62
2018-04-23T00:28:35.639Z,41.29
2018-04-23T00:31:02.984Z,40.45
2018-04-23T00:33:28.877Z,41.34
2018-04-23T00:35:58.167Z,41.90
2018-04-23T00:38:24.078Z,41.75
2018-04-23T00:40:53.318Z,41.68
2018-04-23T00:43:19.223Z,40.90
2018-04-23T00:45:45.095Z,40.42
2018-04-23T00:48:11.012Z,42.74
2018-04-23T00:50:36.949Z,44.98
2018-04-23T00:53:15.844Z,46.62
2018-04-23T00:55:41.751Z,45.57
2018-04-23T00:58:07.667Z,42.01
2018-04-23T01:00:33.646Z,42.67
2018-04-23T01:02:59.539Z,42.36
2018-04-23T01:05:25.438Z,42.02
2018-04-23T01:07:51.307Z,41.17
2018-04-23T01:10:17.243Z,41.76
2018-04-23T01:12:43.584Z,42.05
2018-04-23T01:15:09.457Z,41.43
2018-04-23T01:17:38.644Z,41.51
2018-04-23T01:20:04.599Z,40.94
2018-04-23T01:22:30.451Z,41.34
2018-04-23T01:24:56.398Z,42.05
2018-04-23T01:27:22.266Z,42.00
2018-04-23T01:29:49.435Z,41.42
2018-04-23T01:32:15.359Z,41.62
2018-04-23T01:34:44.291Z,42.18
2018-04-23T01:37:10.200Z,43.07
2018-04-23T01:39:39.849Z,41.98
2018-04-23T01:42:05.805Z,41.66
2018-04-23T01:44:33.658Z,41.79
2018-04-23T01:46:59.519Z,41.27
2018-04-23T01:49:28.464Z,41.14
2018-04-23T01:51:54.317Z,40.78
2018-04-23T01:54:24.044Z,40.79
2018-04-23T01:56:49.946Z,41.94
2018-04-23T01:59:15.888Z,42.67
2018-04-23T02:01:41.798Z,41.81
2018-04-23T02:04:08.909Z,41.60
2018-04-23T02:06:34.798Z,42.37
2018-04-23T02:09:00.702Z,42.12
2018-04-23T02:11:29.961Z,42.84
2018-04-23T02:13:56.535Z,42.21
2018-04-23T02:16:24.141Z,42.33
2018-04-23T02:18:50.050Z,42.28
2018-04-23T02:21:18.991Z,41.81
2018-04-23T02:23:45.082Z,41.51
2018-04-23T02:26:14.407Z,41.67
2018-04-23T02:28:40.378Z,41.64
2018-04-23T02:31:09.975Z,42.09
2018-04-23T02:33:35.895Z,42.50
2018-04-23T02:36:01.836Z,42.47
2018-04-23T02:38:27.798Z,42.02
2018-04-23T02:40:53.686Z,42.25
2018-04-23T02:43:20.669Z,42.18
2018-04-23T02:45:46.593Z,42.14
2018-04-23T02:48:16.340Z,42.36
2018-04-23T02:50:42.303Z,41.94
2018-04-23T02:53:09.565Z,42.44
2018-04-23T02:55:35.529Z,42.43
2018-04-23T02:58:05.181Z,42.22
2018-04-23T03:00:31.091Z,41.96
2018-04-23T03:02:58.709Z,41.84
2018-04-23T03:05:24.618Z,42.32
2018-04-23T03:07:53.340Z,43.00
2018-04-23T03:10:19.268Z,43.44
2018-04-23T03:12:45.156Z,43.51
2018-04-23T03:15:11.025Z,43.59
2018-04-23T03:17:36.927Z,43.62
2018-04-23T03:20:05.144Z,43.77
2018-04-23T03:22:30.999Z,44.42
2018-04-23T03:25:00.100Z,44.43
2018-04-23T03:27:26.034Z,44.36
2018-04-23T03:29:55.252Z,43.71
2018-04-23T03:32:21.199Z,43.32
2018-04-23T03:34:50.446Z,43.72
2018-04-23T03:37:16.458Z,44.45
2018-04-23T03:39:44.069Z,44.49
2018-04-23T03:42:10.027Z,44.44
2018-04-23T03:44:39.899Z,44.38
2018-04-23T03:47:05.807Z,45.85
2018-04-23T03:49:31.743Z,46.79
2018-04-23T03:51:57.668Z,46.42
2018-04-23T03:54:23.592Z,45.81
2018-04-23T03:56:50.479Z,45.16
2018-04-23T03:59:16.391Z,45.08
2018-04-23T04:01:45.284Z,44.62
2018-04-23T04:04:11.220Z,44.53
2018-04-23T04:06:40.531Z,44.75
2018-04-23T04:09:06.463Z,44.81
2018-04-23T04:11:35.046Z,44.67
2018-04-23T04:14:13.647Z,45.27
2018-04-23T04:16:47.785Z,45.81
2018-04-23T04:19:13.687Z,46.44
2018-04-23T04:21:39.551Z,46.58
2018-04-23T04:24:05.942Z,46.51
2018-04-23T04:26:32.039Z,46.80
2018-04-23T04:28:58.254Z,47.07
2018-04-23T04:31:24.147Z,47.37
2018-04-23T04:33:50.004Z,48.29
2018-04-23T04:36:15.915Z,47.59
2018-04-23T04:38:41.796Z,48.27
2018-04-23T04:41:07.669Z,47.87
2018-04-23T04:43:33.575Z,47.37
2018-04-23T04:45:59.502Z,46.90
2018-04-23T04:48:25.411Z,46.21
2018-04-23T04:50:51.315Z,46.07
2018-04-23T04:53:17.233Z,45.85
2018-04-23T04:55:43.111Z,46.04
2018-04-23T04:58:10.181Z,46.19
2018-04-23T05:00:36.043Z,46.23
2018-04-23T05:03:01.961Z,47.42
2018-04-23T05:05:27.847Z,48.05
2018-04-23T05:07:53.727Z,48.10
2018-04-23T05:10:22.730Z,46.61
2018-04-23T05:12:48.629Z,48.46
2018-04-23T05:15:17.564Z,49.24
2018-04-23T05:17:43.473Z,50.52
2018-04-23T05:20:10.999Z,52.99
2018-04-23T05:22:36.886Z,53.00
2018-04-23T05:25:06.411Z,49.44
2018-04-23T05:27:32.343Z,48.72
2018-04-23T05:30:01.654Z,48.22
2018-04-23T05:32:27.562Z,48.21
2018-04-23T05:34:54.965Z,47.87
2018-04-23T05:37:20.893Z,48.99
2018-04-23T05:39:46.796Z,48.41
2018-04-23T05:42:12.656Z,48.90
2018-04-23T05:44:38.526Z,47.82
2018-04-23T05:47:06.907Z,48.31
2018-04-23T05:49:32.847Z,48.48
2018-04-23T05:52:02.672Z,48.41
2018-04-23T05:54:28.546Z,47.93
2018-04-23T05:56:55.703Z,48.23
2018-04-23T05:59:21.631Z,48.78
2018-04-23T06:01:50.340Z,48.51
2018-04-23T06:04:16.222Z,48.14
2018-04-23T06:06:46.029Z,48.26
2018-04-23T06:09:11.899Z,47.45
2018-04-23T06:11:40.107Z,47.97
2018-04-23T06:14:08.298Z,47.43
2018-04-23T06:16:34.158Z,47.94
2018-04-23T06:19:00.077Z,47.70
2018-04-23T06:21:25.973Z,47.65
2018-04-23T06:23:51.963Z,47.51
2018-04-23T06:26:17.889Z,47.59
2018-04-23T06:28:46.906Z,47.06
2018-04-23T06:31:12.799Z,47.02
2018-04-23T06:33:41.299Z,47.25
2018-04-23T06:36:07.264Z,48.04
2018-04-23T06:38:36.591Z,47.08
2018-04-23T06:41:02.502Z,47.40
2018-04-23T06:43:31.633Z,47.54
2018-04-23T06:45:57.615Z,46.42
2018-04-23T06:48:27.065Z,46.28
2018-04-23T06:50:52.964Z,47.57
2018-04-23T06:53:18.926Z,47.69
2018-04-23T06:55:44.808Z,49.78
2018-04-23T06:58:10.742Z,49.51
2018-04-23T07:00:37.339Z,45.80
2018-04-23T07:03:03.225Z,47.11
2018-04-23T07:05:32.594Z,46.12
2018-04-23T07:07:58.536Z,47.28
2018-04-23T07:10:28.076Z,47.84
2018-04-23T07:12:53.900Z,47.50
2018-04-23T07:15:21.687Z,47.02
2018-04-23T07:17:47.615Z,46.70
2018-04-23T07:20:16.263Z,47.11
2018-04-23T07:22:42.135Z,48.13
2018-04-23T07:25:11.435Z,49.10
2018-04-23T07:27:37.352Z,48.78
2018-04-23T07:30:03.246Z,49.18
2018-04-23T07:32:29.188Z,51.14
2018-04-23T07:34:55.174Z,51.93
2018-04-23T07:37:22.931Z,52.56
2018-04-23T07:39:48.836Z,53.08
2018-04-23T07:42:18.272Z,52.33
2018-04-23T07:44:44.170Z,51.15
2018-04-23T07:47:11.961Z,51.07
2018-04-23T07:49:37.886Z,52.77
2018-04-23T07:52:07.504Z,52.55
2018-04-23T07:54:33.401Z,52.62
2018-04-23T07:57:02.915Z,54.19
2018-04-23T07:59:28.839Z,55.31
2018-04-23T08:01:56.355Z,56.08
2018-04-23T08:04:22.265Z,57.32
2018-04-23T08:06:48.221Z,58.51
2018-04-23T08:09:14.143Z,59.06
2018-04-23T08:11:40.033Z,59.54
2018-04-23T08:14:07.756Z,60.50
2018-04-23T08:16:33.649Z,62.56
2018-04-23T08:19:03.071Z,66.47
2018-04-23T08:21:28.998Z,69.14
2018-04-23T08:23:59.116Z,72.98
2018-04-23T08:26:25.048Z,74.27
2018-04-23T08:28:51.840Z,76.25
2018-04-23T08:31:17.775Z,77.12
2018-04-23T08:33:46.763Z,77.74
2018-04-23T08:36:13.200Z,77.27
2018-04-23T08:38:42.999Z,81.31
2018-04-23T08:41:08.911Z,81.12
2018-04-23T08:43:34.796Z,78.03
2018-04-23T08:46:00.671Z,79.45
2018-04-23T08:48:26.582Z,79.66
2018-04-23T08:50:52.783Z,80.24
2018-04-23T08:53:18.728Z,79.58
2018-04-23T08:55:47.970Z,80.48
2018-04-23T08:58:13.852Z,79.76
2018-04-23T09:00:42.355Z,78.17
2018-04-23T09:03:08.278Z,77.21
2018-04-23T09:05:37.311Z,75.37
2018-04-23T09:08:03.214Z,73.43
2018-04-23T09:10:32.661Z,75.56
2018-04-23T09:12:58.552Z,74.78
2018-04-23T09:15:27.639Z,72.88
2018-04-23T09:17:53.537Z,72.99
2018-04-23T09:20:19.403Z,72.45
2018-04-23T09:22:45.311Z,73.48
2018-04-23T09:25:11.216Z,73.31
2018-04-23T09:27:38.932Z,72.27
2018-04-23T09:30:04.879Z,69.69
2018-04-23T09:32:33.304Z,72.88
2018-04-23T09:34:59.207Z,74.25
2018-04-23T09:37:29.074Z,73.54
2018-04-23T09:39:54.984Z,74.44
2018-04-23T09:42:22.457Z,74.22
2018-04-23T09:44:48.360Z,73.82
2018-04-23T09:47:18.100Z,74.60
2018-04-23T09:49:44.007Z,75.87
2018-04-23T09:52:11.705Z,74.10
2018-04-23T09:54:37.561Z,74.61
2018-04-23T09:57:03.502Z,76.22
2018-04-23T09:59:29.413Z,76.33
2018-04-23T10:01:55.338Z,77.60
2018-04-23T10:04:25.111Z,77.75
2018-04-23T10:06:50.987Z,78.03
2018-04-23T10:09:18.968Z,77.41
2018-04-23T10:11:44.851Z,77.90
2018-04-23T10:14:12.915Z,78.46
2018-04-23T10:16:38.821Z,79.31
2018-04-23T10:19:07.544Z,79.59
2018-04-23T10:21:34.290Z,80.22
2018-04-23T10:24:03.190Z,79.44
2018-04-23T10:26:29.056Z,79.79
2018-04-23T10:28:58.804Z,79.51
2018-04-23T10:31:24.730Z,79.09
2018-04-23T10:33:50.597Z,77.97
2018-04-23T10:36:16.479Z,78.20
2018-04-23T10:38:42.423Z,74.34
2018-04-23T10:41:08.789Z,74.01
2018-04-23T10:43:34.721Z,72.27
2018-04-23T10:46:03.593Z,70.90
2018-04-23T10:48:29.479Z,70.31
2018-04-23T10:50:58.841Z,69.05
2018-04-23T10:53:24.757Z,68.86
2018-04-23T10:55:54.092Z,68.00
2018-04-23T10:58:19.970Z,68.77
2018-04-23T11:00:47.938Z,69.52
2018-04-23T11:03:13.809Z,69.18
2018-04-23T11:05:43.355Z,68.37
2018-04-23T11:08:09.221Z,68.57
2018-04-23T11:10:35.155Z,67.65
2018-04-23T11:13:01.040Z,69.76
2018-04-23T11:15:26.933Z,69.23
2018-04-23T11:17:54.667Z,67.55
2018-04-23T11:20:20.538Z,68.07
2018-04-23T11:22:49.935Z,68.92
2018-04-23T11:25:15.862Z,68.26
2018-04-23T11:27:43.830Z,70.03
2018-04-23T11:30:09.728Z,70.84
2018-04-23T11:32:39.068Z,70.75
2018-04-23T11:35:04.969Z,72.25
2018-04-23T11:37:34.836Z,71.76
2018-04-23T11:40:00.765Z,71.66
2018-04-23T11:42:28.298Z,69.80
2018-04-23T11:44:54.181Z,70.80
2018-04-23T11:47:20.056Z,70.13
2018-04-23T11:49:46.131Z,71.05
2018-04-23T11:52:12.025Z,72.64
2018-04-23T11:54:40.011Z,71.87
2018-04-23T11:57:05.924Z,71.61
2018-04-23T11:59:35.277Z,73.08
2018-04-23T12:02:01.210Z,70.62
2018-04-23T12:04:30.453Z,73.93
2018-04-23T12:06:56.332Z,72.63
2018-04-23T12:09:23.846Z,75.55
2018-04-23T12:11:49.711Z,75.04
2018-04-23T12:14:18.462Z,74.00
2018-04-23T12:16:44.406Z,74.79
2018-04-23T12:19:13.803Z,74.63
2018-04-23T12:21:39.749Z,76.13
2018-04-23T12:24:07.980Z,74.08
2018-04-23T12:26:33.893Z,75.62
2018-04-23T12:28:59.750Z,76.78
2018-04-23T12:31:25.707Z,78.46
2018-04-23T12:33:51.566Z,76.04
2018-04-23T12:36:20.676Z,78.35
2018-04-23T12:38:46.549Z,78.01
2018-04-23T12:41:14.018Z,79.61
2018-04-23T12:43:39.948Z,79.36
2018-04-23T12:46:08.825Z,78.59
2018-04-23T12:48:34.695Z,78.68
2018-04-23T12:51:03.500Z,77.79
2018-04-23T12:53:29.439Z,77.84
2018-04-23T12:55:58.574Z,79.64
2018-04-23T12:58:24.427Z,76.80
2018-04-23T13:00:50.350Z,77.74
2018-04-23T13:03:16.282Z,78.40
2018-04-23T13:05:42.241Z,78.26
2018-04-23T13:08:11.182Z,77.70
2018-04-23T13:10:37.092Z,75.97
2018-04-23T13:13:04.821Z,75.22
2018-04-23T13:15:30.724Z,71.53
2018-04-23T13:18:00.084Z,71.65
2018-04-23T13:20:25.971Z,68.61
2018-04-23T13:22:55.625Z,68.32
2018-04-23T13:25:21.508Z,66.77
2018-04-23T13:27:49.126Z,65.95
2018-04-23T13:30:15.027Z,67.27
2018-04-23T13:32:44.298Z,67.72
2018-04-23T13:35:10.200Z,65.15
2018-04-23T13:37:36.112Z,65.72
2018-04-23T13:40:02.061Z,64.99
2018-04-23T13:42:27.968Z,66.67
2018-04-23T13:44:56.980Z,66.44
2018-04-23T13:47:22.965Z,65.70
2018-04-23T13:49:50.579Z,66.16
2018-04-23T13:52:16.493Z,62.62
2018-04-23T13:54:44.941Z,63.72
2018-04-23T13:57:10.858Z,61.31
2018-04-23T13:59:40.040Z,62.98
2018-04-23T14:02:06.014Z,61.01
2018-04-23T14:04:35.562Z,61.06
2018-04-23T14:07:01.569Z,63.23
2018-04-23T14:09:28.815Z,60.67
2018-04-23T14:11:54.707Z,63.17
2018-04-23T14:14:20.595Z,63.51
2018-04-23T14:16:46.494Z,61.49
2018-04-23T14:19:12.411Z,63.04
2018-04-23T14:21:40.847Z,63.88
2018-04-23T14:24:08.531Z,65.75
2018-04-23T14:26:35.586Z,65.61
2018-04-23T14:29:01.479Z,66.69
2018-04-23T14:31:30.070Z,67.00
2018-04-23T14:33:56.449Z,67.65
2018-04-23T14:36:24.719Z,67.76
2018-04-23T14:38:50.895Z,64.20
2018-04-23T14:41:20.484Z,67.93
2018-04-23T14:43:46.360Z,67.97
2018-04-23T14:46:15.948Z,66.41
2018-04-23T14:48:41.883Z,66.03
2018-04-23T14:51:07.762Z,62.07
2018-04-23T14:53:33.658Z,56.29
2018-04-23T14:55:59.563Z,55.61
2018-04-23T14:58:25.796Z,55.28
2018-04-23T15:00:51.710Z,55.81
2018-04-23T15:03:20.495Z,57.03
2018-04-23T15:05:46.423Z,53.44
2018-04-23T15:08:16.248Z,54.26
2018-04-23T15:10:42.129Z,54.68
2018-04-23T15:13:10.211Z,55.73
2018-04-23T15:15:36.135Z,56.07
2018-04-23T15:18:05.536Z,56.41
2018-04-23T15:20:31.411Z,56.15
2018-04-23T15:22:59.828Z,57.23
2018-04-23T15:25:25.683Z,56.75
2018-04-23T15:27:51.683Z,57.20
2018-04-23T15:30:17.625Z,57.38
2018-04-23T15:32:43.566Z,57.31
2018-04-23T15:35:11.279Z,58.35
2018-04-23T15:37:37.167Z,58.54
2018-04-23T15:40:05.890Z,58.81
2018-04-23T15:42:31.863Z,59.24
2018-04-23T15:45:00.630Z,60.45
2018-04-23T15:47:26.548Z,60.55
2018-04-23T15:49:55.334Z,61.40
2018-04-23T15:52:21.255Z,61.40
2018-04-23T15:54:49.999Z,61.76
2018-04-23T15:57:15.871Z,62.65
2018-04-23T15:59:44.803Z,62.86
2018-04-23T16:02:10.675Z,63.03
2018-04-23T16:04:36.575Z,63.38
2018-04-23T16:07:02.561Z,63.39
2018-04-23T16:09:28.488Z,63.77
2018-04-23T16:11:56.915Z,64.41
2018-04-23T16:14:22.826Z,64.70
2018-04-23T16:16:52.026Z,64.84
2018-04-23T16:19:17.948Z,64.66
2018-04-23T16:21:47.491Z,65.40
2018-04-23T16:24:13.359Z,65.36
2018-04-23T16:26:40.921Z,65.49
2018-04-23T16:29:06.811Z,65.30
2018-04-23T16:31:36.347Z,65.92
2018-04-23T16:34:02.242Z,64.58
2018-04-23T16:36:31.825Z,64.58
2018-04-23T16:38:57.728Z,63.77
2018-04-23T16:41:23.639Z,63.44
2018-04-23T16:43:49.569Z,63.88
2018-04-23T16:46:15.459Z,63.86
2018-04-23T16:48:42.387Z,62.59
2018-04-23T16:51:08.272Z,63.19
2018-04-23T16:53:37.658Z,63.17
2018-04-23T16:56:03.591Z,63.21
2018-04-23T16:58:33.110Z,63.44
2018-04-23T17:00:58.981Z,63.55
2018-04-23T17:03:26.410Z,63.40
2018-04-23T17:05:52.312Z,63.25
2018-04-23T17:08:21.763Z,63.24
2018-04-23T17:10:47.683Z,63.41
2018-04-23T17:13:17.443Z,63.25
2018-04-23T17:15:43.324Z,62.77
2018-04-23T17:18:09.241Z,63.14
2018-04-23T17:20:35.127Z,63.50
2018-04-23T17:23:01.092Z,63.36
2018-04-23T17:25:27.038Z,64.22
2018-04-23T17:27:53.407Z,64.33
2018-04-23T17:30:22.583Z,63.99
2018-04-23T17:32:48.499Z,64.17
2018-04-23T17:35:16.580Z,64.09
2018-04-23T17:37:42.523Z,64.25
2018-04-23T17:40:12.140Z,64.39
2018-04-23T17:42:38.099Z,64.60
2018-04-23T17:45:07.704Z,64.96
2018-04-23T17:47:33.639Z,64.47
2018-04-23T17:50:00.734Z,64.26
2018-04-23T17:52:26.624Z,64.47
2018-04-23T17:54:53.370Z,64.02
2018-04-23T17:57:19.240Z,64.76
2018-04-23T17:59:45.173Z,65.36
2018-04-23T18:02:14.099Z,65.64
2018-04-23T18:04:40.012Z,64.90
2018-04-23T18:07:08.977Z,65.32
2018-04-23T18:09:34.825Z,65.91
2018-04-23T18:12:02.771Z,66.33
2018-04-23T18:14:28.667Z,66.44
2018-04-23T18:16:56.512Z,66.66
2018-04-23T18:19:24.983Z,66.95
2018-04-23T18:21:51.164Z,66.83
2018-04-23T18:24:17.073Z,66.74
2018-04-23T18:26:46.459Z,67.42
2018-04-23T18:29:12.333Z,67.55
2018-04-23T18:31:38.414Z,66.95
2018-04-23T18:34:04.509Z,67.01
2018-04-23T18:36:31.130Z,66.84
2018-04-23T18:38:57.738Z,67.02
2018-04-23T18:41:23.643Z,67.27
2018-04-23T18:43:52.172Z,67.66
2018-04-23T18:46:18.114Z,67.62
2018-04-23T18:48:47.329Z,68.07
2018-04-23T18:51:13.231Z,68.50
2018-04-23T18:53:42.191Z,68.66
2018-04-23T18:56:08.391Z,69.06
2018-04-23T18:58:36.444Z,69.03
2018-04-23T19:01:02.340Z,69.44
2018-04-23T19:03:31.484Z,69.50
2018-04-23T19:05:57.401Z,69.48
2018-04-23T19:08:23.273Z,69.97
2018-04-23T19:10:49.216Z,69.77
2018-04-23T19:13:15.119Z,70.13
2018-04-23T19:15:44.534Z,69.82
2018-04-23T19:18:10.423Z,69.75
2018-04-23T19:20:38.494Z,69.84
2018-04-23T19:23:04.475Z,69.53
2018-04-23T19:25:36.649Z,69.63
2018-04-23T19:28:03.062Z,69.27
2018-04-23T19:30:28.996Z,69.76
2018-04-23T19:32:54.946Z,69.18
2018-04-23T19:35:21.876Z,69.33
2018-04-23T19:37:47.752Z,69.84
2018-04-23T19:40:16.553Z,69.87
2018-04-23T19:42:44.765Z,69.97
2018-04-23T19:45:10.773Z,70.29
2018-04-23T19:47:36.655Z,70.07
2018-04-23T19:50:02.591Z,70.60
2018-04-23T19:52:28.502Z,70.37
2018-04-23T19:54:54.408Z,70.25
2018-04-23T19:57:24.265Z,70.33
2018-04-23T19:59:50.154Z,70.37
2018-04-23T20:02:17.683Z,70.55
2018-04-23T20:04:43.564Z,70.59
2018-04-23T20:07:12.712Z,70.36
2018-04-23T20:09:38.814Z,71.72
2018-04-23T20:12:08.412Z,72.50
2018-04-23T20:14:34.400Z,72.83
2018-04-23T20:17:03.594Z,72.55
2018-04-23T20:19:29.472Z,72.38
2018-04-23T20:21:55.389Z,72.47
2018-04-23T20:24:21.295Z,72.65
2018-04-23T20:26:47.178Z,72.95
2018-04-23T20:29:13.870Z,72.80
2018-04-23T20:31:39.752Z,72.52
2018-04-23T20:34:09.179Z,72.44
2018-04-23T20:36:35.045Z,72.25
2018-04-23T20:39:03.317Z,72.03
2018-04-23T20:41:29.224Z,71.92
2018-04-23T20:43:59.031Z,72.10
2018-04-23T20:46:24.971Z,72.40
2018-04-23T20:48:52.466Z,72.55
2018-04-23T20:51:18.389Z,72.37
2018-04-23T20:53:47.950Z,72.40
2018-04-23T20:56:13.814Z,72.51
2018-04-23T20:58:39.725Z,72.39
2018-04-23T21:01:05.678Z,72.25
2018-04-23T21:03:31.564Z,72.36
2018-04-23T21:05:59.253Z,72.17
2018-04-23T21:08:25.114Z,72.39
2018-04-23T21:10:53.768Z,72.76
2018-04-23T21:13:19.700Z,73.02
2018-04-23T21:15:48.302Z,73.00
2018-04-23T21:18:14.236Z,73.20
2018-04-23T21:20:43.152Z,73.44
2018-04-23T21:23:09.070Z,73.41
2018-04-23T21:25:38.225Z,73.79
2018-04-23T21:28:05.174Z,74.07
2018-04-23T21:30:32.504Z,74.17
2018-04-23T21:32:58.645Z,74.23
2018-04-23T21:35:24.578Z,74.62
2018-04-23T21:37:50.493Z,74.50
2018-04-23T21:40:16.396Z,75.14
2018-04-23T21:42:45.772Z,74.73
2018-04-23T21:45:11.719Z,74.91
2018-04-23T21:47:40.791Z,75.88
2018-04-23T21:50:06.691Z,75.98
2018-04-23T21:52:34.175Z,75.80
2018-04-23T21:55:00.248Z,75.86
2018-04-23T21:57:28.580Z,75.68
2018-04-23T21:59:54.474Z,75.81
2018-04-23T22:02:23.499Z,75.94
2018-04-23T22:04:49.446Z,76.02
2018-04-23T22:07:18.802Z,76.20
2018-04-23T22:09:44.735Z,76.43
2018-04-23T22:12:10.663Z,77.17
2018-04-23T22:14:36.594Z,77.30
2018-04-23T22:17:02.607Z,77.47
2018-04-23T22:19:29.568Z,77.32
2018-04-23T22:21:55.482Z,77.38
2018-04-23T22:24:25.367Z,77.36
2018-04-23T22:26:51.308Z,77.28
2018-04-23T22:29:18.938Z,77.10
2018-04-23T22:31:44.868Z,77.62
2018-04-23T22:34:14.717Z,77.24
2018-04-23T22:36:40.652Z,77.29
2018-04-23T22:39:08.579Z,77.53
2018-04-23T22:41:34.492Z,77.84
2018-04-23T22:44:04.205Z,77.79
2018-04-23T22:46:30.157Z,77.97
2018-04-23T22:48:56.105Z,77.67
2018-04-23T22:51:22.031Z,77.68
2018-04-23T22:53:47.944Z,77.55
2018-04-23T22:56:14.859Z,76.10
2018-04-23T22:58:40.765Z,76.58
2018-04-23T23:01:09.506Z,77.06
2018-04-23T23:03:35.466Z,77.42
2018-04-23T23:06:04.771Z,78.10
2018-04-23T23:08:30.700Z,78.12
2018-04-23T23:10:59.853Z,77.80
2018-04-23T23:13:25.763Z,77.63
2018-04-23T23:15:55.239Z,77.74
2018-04-23T23:18:21.140Z,77.94
2018-04-23T23:20:48.598Z,78.48
2018-04-23T23:23:14.517Z,78.82
2018-04-23T23:25:40.394Z,78.41
2018-04-23T23:28:06.311Z,79.13
2018-04-23T23:30:32.210Z,78.60
2018-04-23T23:33:01.776Z,78.12
2018-04-23T23:35:27.724Z,78.45
2018-04-23T23:37:55.708Z,79.27
2018-04-23T23:40:21.559Z,79.80
2018-04-23T23:42:51.110Z,80.41
2018-04-23T23:45:17.032Z,79.40
2018-04-23T23:47:44.215Z,79.54
2018-04-23T23:50:10.161Z,79.57
2018-04-23T23:52:38.839Z,79.67
2018-04-23T23:55:04.752Z,79.57
2018-04-23T23:57:33.458Z,79.35
2018-04-23T23:59:59.396Z,79.43
